sensor_id;sensor_type;location;lat;lon;timestamp;P1;durP1;ratioP1;P2;durP2;ratioP2
18838;SDS011;9548;56.920;14.804;2023-02-28T00:01:08;12.67;;;5.90;;
18838;SDS011;9548;56.920;14.804;2023-02-28T00:03:35;14.07;;;5.65;;
18838;SDS011;9548;56.920;14.804;2023-02-28T00:06:02;12.23;;;5.40;;
18838;SDS011;9548;56.920;14.804;2023-02-28T00:08:29;11.70;;;5.35;;
18838;SDS011;9548;56.920;14.804;2023-02-28T00:11:00;14.53;;;5.50;;
18838;SDS011;9548;56.920;14.804;2023-02-28T00:13:28;13.30;;;5.53;;
18838;SDS011;9548;56.920;14.804;2023-02-28T00:16:01;10.37;;;4.60;;
18838;SDS011;9548;56.920;14.804;2023-02-28T00:18:30;10.23;;;4.88;;
18838;SDS011;9548;56.920;14.804;2023-02-28T00:20:57;10.68;;;4.72;;
18838;SDS011;9548;56.920;14.804;2023-02-28T00:23:24;11.00;;;4.40;;
18838;SDS011;9548;56.920;14.804;2023-02-28T00:25:52;8.90;;;4.50;;
18838;SDS011;9548;56.920;14.804;2023-02-28T00:28:20;11.40;;;4.93;;
18838;SDS011;9548;56.920;14.804;2023-02-28T00:30:48;11.93;;;5.70;;
18838;SDS011;9548;56.920;14.804;2023-02-28T00:33:15;13.90;;;5.78;;
18838;SDS011;9548;56.920;14.804;2023-02-28T00:35:42;15.20;;;5.93;;
18838;SDS011;9548;56.920;14.804;2023-02-28T00:38:11;14.80;;;5.67;;
18838;SDS011;9548;56.920;14.804;2023-02-28T00:40:38;11.80;;;5.28;;
18838;SDS011;9548;56.920;14.804;2023-02-28T00:43:05;11.13;;;5.00;;
18838;SDS011;9548;56.920;14.804;2023-02-28T00:45:33;11.27;;;5.45;;
18838;SDS011;9548;56.920;14.804;2023-02-28T00:48:00;10.30;;;5.03;;
18838;SDS011;9548;56.920;14.804;2023-02-28T00:50:27;10.80;;;4.90;;
18838;SDS011;9548;56.920;14.804;2023-02-28T00:52:53;11.85;;;5.20;;
18838;SDS011;9548;56.920;14.804;2023-02-28T00:55:20;9.97;;;4.73;;
18838;SDS011;9548;56.920;14.804;2023-02-28T00:57:47;10.57;;;4.43;;
18838;SDS011;9548;56.920;14.804;2023-02-28T01:00:14;10.00;;;5.07;;
18838;SDS011;9548;56.920;14.804;2023-02-28T01:02:43;10.00;;;4.57;;
18838;SDS011;9548;56.920;14.804;2023-02-28T01:05:10;9.77;;;4.40;;
18838;SDS011;9548;56.920;14.804;2023-02-28T01:07:37;8.70;;;4.60;;
18838;SDS011;9548;56.920;14.804;2023-02-28T01:10:04;11.27;;;4.87;;
18838;SDS011;9548;56.920;14.804;2023-02-28T01:12:31;9.70;;;4.57;;
18838;SDS011;9548;56.920;14.804;2023-02-28T01:14:58;11.70;;;5.20;;
18838;SDS011;9548;56.920;14.804;2023-02-28T01:17:25;8.33;;;4.40;;
18838;SDS011;9548;56.920;14.804;2023-02-28T01:19:54;9.33;;;4.20;;
18838;SDS011;9548;56.920;14.804;2023-02-28T01:22:21;8.37;;;4.10;;
18838;SDS011;9548;56.920;14.804;2023-02-28T01:24:48;8.77;;;3.87;;
18838;SDS011;9548;56.920;14.804;2023-02-28T01:27:15;7.80;;;3.97;;
18838;SDS011;9548;56.920;14.804;2023-02-28T01:29:42;8.13;;;3.20;;
18838;SDS011;9548;56.920;14.804;2023-02-28T01:32:09;7.63;;;3.60;;
18838;SDS011;9548;56.920;14.804;2023-02-28T01:34:36;10.17;;;3.70;;
18838;SDS011;9548;56.920;14.804;2023-02-28T01:37:04;5.93;;;2.67;;
18838;SDS011;9548;56.920;14.804;2023-02-28T01:39:31;6.57;;;3.10;;
18838;SDS011;9548;56.920;14.804;2023-02-28T01:41:58;5.85;;;2.40;;
18838;SDS011;9548;56.920;14.804;2023-02-28T01:47:28;10.55;;;3.67;;
18838;SDS011;9548;56.920;14.804;2023-02-28T01:49:57;6.45;;;3.10;;
18838;SDS011;9548;56.920;14.804;2023-02-28T01:52:27;6.85;;;3.17;;
18838;SDS011;9548;56.920;14.804;2023-02-28T01:54:55;8.93;;;3.53;;
18838;SDS011;9548;56.920;14.804;2023-02-28T01:57:25;6.13;;;3.33;;
18838;SDS011;9548;56.920;14.804;2023-02-28T02:00:03;6.77;;;3.23;;
18838;SDS011;9548;56.920;14.804;2023-02-28T02:02:34;7.45;;;2.90;;
18838;SDS011;9548;56.920;14.804;2023-02-28T02:05:04;6.82;;;3.05;;
18838;SDS011;9548;56.920;14.804;2023-02-28T02:07:35;7.43;;;3.13;;
18838;SDS011;9548;56.920;14.804;2023-02-28T02:10:05;5.43;;;3.25;;
18838;SDS011;9548;56.920;14.804;2023-02-28T02:12:37;4.45;;;2.80;;
18838;SDS011;9548;56.920;14.804;2023-02-28T02:15:18;9.30;;;3.20;;
18838;SDS011;9548;56.920;14.804;2023-02-28T02:17:51;6.72;;;3.08;;
18838;SDS011;9548;56.920;14.804;2023-02-28T02:23:34;5.97;;;3.07;;
18838;SDS011;9548;56.920;14.804;2023-02-28T02:29:16;5.97;;;2.50;;
18838;SDS011;9548;56.920;14.804;2023-02-28T02:32:07;5.10;;;2.60;;
18838;SDS011;9548;56.920;14.804;2023-02-28T02:34:49;4.80;;;2.50;;
18838;SDS011;9548;56.920;14.804;2023-02-28T02:37:27;4.03;;;2.27;;
18838;SDS011;9548;56.920;14.804;2023-02-28T02:40:04;4.65;;;2.45;;
18838;SDS011;9548;56.920;14.804;2023-02-28T02:42:38;4.90;;;2.70;;
18838;SDS011;9548;56.920;14.804;2023-02-28T02:45:12;5.20;;;2.33;;
18838;SDS011;9548;56.920;14.804;2023-02-28T02:47:42;6.23;;;2.77;;
18838;SDS011;9548;56.920;14.804;2023-02-28T02:50:14;4.97;;;2.58;;
18838;SDS011;9548;56.920;14.804;2023-02-28T02:52:46;5.03;;;2.27;;
18838;SDS011;9548;56.920;14.804;2023-02-28T02:55:17;5.13;;;2.70;;
18838;SDS011;9548;56.920;14.804;2023-02-28T02:57:47;5.57;;;3.10;;
18838;SDS011;9548;56.920;14.804;2023-02-28T03:00:17;5.20;;;2.70;;
18838;SDS011;9548;56.920;14.804;2023-02-28T03:02:49;5.73;;;2.60;;
18838;SDS011;9548;56.920;14.804;2023-02-28T03:05:23;6.20;;;2.73;;
18838;SDS011;9548;56.920;14.804;2023-02-28T03:07:52;5.30;;;2.60;;
18838;SDS011;9548;56.920;14.804;2023-02-28T03:10:29;4.82;;;2.15;;
18838;SDS011;9548;56.920;14.804;2023-02-28T03:16:17;5.13;;;2.70;;
18838;SDS011;9548;56.920;14.804;2023-02-28T03:19:14;3.20;;;2.23;;
18838;SDS011;9548;56.920;14.804;2023-02-28T03:22:01;4.83;;;2.60;;
18838;SDS011;9548;56.920;14.804;2023-02-28T03:24:40;5.50;;;2.50;;
18838;SDS011;9548;56.920;14.804;2023-02-28T03:27:16;5.23;;;2.50;;
18838;SDS011;9548;56.920;14.804;2023-02-28T03:29:47;6.60;;;2.70;;
18838;SDS011;9548;56.920;14.804;2023-02-28T03:32:21;4.87;;;2.47;;
18838;SDS011;9548;56.920;14.804;2023-02-28T03:34:54;4.30;;;2.20;;
18838;SDS011;9548;56.920;14.804;2023-02-28T03:37:30;6.63;;;2.60;;
18838;SDS011;9548;56.920;14.804;2023-02-28T03:40:02;3.57;;;2.30;;
18838;SDS011;9548;56.920;14.804;2023-02-28T03:42:33;4.73;;;2.30;;
18838;SDS011;9548;56.920;14.804;2023-02-28T03:45:04;5.23;;;2.13;;
18838;SDS011;9548;56.920;14.804;2023-02-28T03:47:37;5.13;;;1.90;;
18838;SDS011;9548;56.920;14.804;2023-02-28T03:50:10;6.38;;;2.50;;
18838;SDS011;9548;56.920;14.804;2023-02-28T03:52:44;5.23;;;2.70;;
18838;SDS011;9548;56.920;14.804;2023-02-28T03:55:14;7.63;;;2.97;;
18838;SDS011;9548;56.920;14.804;2023-02-28T03:57:44;9.23;;;2.90;;
18838;SDS011;9548;56.920;14.804;2023-02-28T04:00:19;5.33;;;2.87;;
18838;SDS011;9548;56.920;14.804;2023-02-28T04:02:53;6.70;;;2.97;;
18838;SDS011;9548;56.920;14.804;2023-02-28T04:05:20;8.07;;;2.90;;
18838;SDS011;9548;56.920;14.804;2023-02-28T04:07:49;4.67;;;2.87;;
18838;SDS011;9548;56.920;14.804;2023-02-28T04:10:16;4.37;;;2.60;;
18838;SDS011;9548;56.920;14.804;2023-02-28T04:12:43;4.53;;;2.47;;
18838;SDS011;9548;56.920;14.804;2023-02-28T04:15:10;7.17;;;3.20;;
18838;SDS011;9548;56.920;14.804;2023-02-28T04:17:37;7.67;;;2.90;;
18838;SDS011;9548;56.920;14.804;2023-02-28T04:20:06;6.03;;;3.03;;
18838;SDS011;9548;56.920;14.804;2023-02-28T04:22:35;5.07;;;2.70;;
18838;SDS011;9548;56.920;14.804;2023-02-28T04:25:05;4.93;;;2.33;;
18838;SDS011;9548;56.920;14.804;2023-02-28T04:27:32;5.50;;;2.70;;
18838;SDS011;9548;56.920;14.804;2023-02-28T04:30:00;6.07;;;2.57;;
18838;SDS011;9548;56.920;14.804;2023-02-28T04:32:27;6.33;;;3.10;;
18838;SDS011;9548;56.920;14.804;2023-02-28T04:34:54;5.37;;;2.50;;
18838;SDS011;9548;56.920;14.804;2023-02-28T04:37:20;5.43;;;2.60;;
18838;SDS011;9548;56.920;14.804;2023-02-28T04:39:53;3.73;;;2.03;;
18838;SDS011;9548;56.920;14.804;2023-02-28T04:42:21;5.57;;;2.33;;
18838;SDS011;9548;56.920;14.804;2023-02-28T04:44:48;3.67;;;2.20;;
18838;SDS011;9548;56.920;14.804;2023-02-28T04:47:15;4.83;;;2.87;;
18838;SDS011;9548;56.920;14.804;2023-02-28T04:49:42;4.17;;;2.37;;
18838;SDS011;9548;56.920;14.804;2023-02-28T04:52:09;5.57;;;2.63;;
18838;SDS011;9548;56.920;14.804;2023-02-28T04:54:36;4.07;;;2.30;;
18838;SDS011;9548;56.920;14.804;2023-02-28T04:57:04;4.47;;;1.93;;
18838;SDS011;9548;56.920;14.804;2023-02-28T04:59:32;4.60;;;2.50;;
18838;SDS011;9548;56.920;14.804;2023-02-28T05:01:59;4.60;;;1.93;;
18838;SDS011;9548;56.920;14.804;2023-02-28T05:04:31;5.23;;;2.47;;
18838;SDS011;9548;56.920;14.804;2023-02-28T05:06:59;5.77;;;2.10;;
18838;SDS011;9548;56.920;14.804;2023-02-28T05:09:26;4.60;;;2.50;;
18838;SDS011;9548;56.920;14.804;2023-02-28T05:11:53;8.00;;;2.97;;
18838;SDS011;9548;56.920;14.804;2023-02-28T05:14:20;5.30;;;2.40;;
18838;SDS011;9548;56.920;14.804;2023-02-28T05:16:49;7.73;;;3.20;;
18838;SDS011;9548;56.920;14.804;2023-02-28T05:19:16;6.47;;;2.70;;
18838;SDS011;9548;56.920;14.804;2023-02-28T05:21:48;5.30;;;2.07;;
18838;SDS011;9548;56.920;14.804;2023-02-28T05:24:16;3.80;;;2.10;;
18838;SDS011;9548;56.920;14.804;2023-02-28T05:26:48;5.70;;;2.33;;
18838;SDS011;9548;56.920;14.804;2023-02-28T05:29:17;6.90;;;3.43;;
18838;SDS011;9548;56.920;14.804;2023-02-28T05:31:44;7.27;;;3.07;;
18838;SDS011;9548;56.920;14.804;2023-02-28T05:34:12;5.20;;;3.07;;
18838;SDS011;9548;56.920;14.804;2023-02-28T05:36:40;4.53;;;2.43;;
18838;SDS011;9548;56.920;14.804;2023-02-28T05:39:07;4.93;;;2.60;;
18838;SDS011;9548;56.920;14.804;2023-02-28T05:41:37;4.07;;;2.20;;
18838;SDS011;9548;56.920;14.804;2023-02-28T05:44:06;5.13;;;2.70;;
18838;SDS011;9548;56.920;14.804;2023-02-28T05:46:33;6.13;;;2.93;;
18838;SDS011;9548;56.920;14.804;2023-02-28T05:48:59;5.30;;;2.70;;
18838;SDS011;9548;56.920;14.804;2023-02-28T05:51:28;4.63;;;2.70;;
18838;SDS011;9548;56.920;14.804;2023-02-28T05:53:58;5.23;;;2.73;;
18838;SDS011;9548;56.920;14.804;2023-02-28T05:56:26;4.80;;;2.50;;
18838;SDS011;9548;56.920;14.804;2023-02-28T05:58:53;6.53;;;3.17;;
18838;SDS011;9548;56.920;14.804;2023-02-28T06:01:21;9.93;;;3.80;;
18838;SDS011;9548;56.920;14.804;2023-02-28T06:03:50;10.70;;;3.60;;
18838;SDS011;9548;56.920;14.804;2023-02-28T06:06:17;9.23;;;4.27;;
18838;SDS011;9548;56.920;14.804;2023-02-28T06:08:45;8.50;;;3.77;;
18838;SDS011;9548;56.920;14.804;2023-02-28T06:11:12;8.83;;;3.60;;
18838;SDS011;9548;56.920;14.804;2023-02-28T06:13:39;8.13;;;3.20;;
18838;SDS011;9548;56.920;14.804;2023-02-28T06:16:07;8.27;;;2.93;;
18838;SDS011;9548;56.920;14.804;2023-02-28T06:18:35;7.03;;;2.70;;
18838;SDS011;9548;56.920;14.804;2023-02-28T06:21:02;8.33;;;3.13;;
18838;SDS011;9548;56.920;14.804;2023-02-28T06:23:29;7.70;;;3.20;;
18838;SDS011;9548;56.920;14.804;2023-02-28T06:25:58;5.10;;;2.60;;
18838;SDS011;9548;56.920;14.804;2023-02-28T06:28:24;7.03;;;2.97;;
18838;SDS011;9548;56.920;14.804;2023-02-28T06:30:51;6.40;;;3.10;;
18838;SDS011;9548;56.920;14.804;2023-02-28T06:33:18;8.83;;;3.33;;
18838;SDS011;9548;56.920;14.804;2023-02-28T06:35:46;6.30;;;3.43;;
18838;SDS011;9548;56.920;14.804;2023-02-28T06:38:13;7.83;;;3.70;;
18838;SDS011;9548;56.920;14.804;2023-02-28T06:40:40;7.70;;;3.10;;
18838;SDS011;9548;56.920;14.804;2023-02-28T06:43:10;6.93;;;3.30;;
18838;SDS011;9548;56.920;14.804;2023-02-28T06:45:40;7.37;;;3.57;;
18838;SDS011;9548;56.920;14.804;2023-02-28T06:48:08;12.30;;;5.07;;
18838;SDS011;9548;56.920;14.804;2023-02-28T06:50:35;13.97;;;4.27;;
18838;SDS011;9548;56.920;14.804;2023-02-28T06:53:03;10.20;;;4.23;;
18838;SDS011;9548;56.920;14.804;2023-02-28T06:55:30;7.72;;;3.92;;
18838;SDS011;9548;56.920;14.804;2023-02-28T06:57:57;8.40;;;3.73;;
18838;SDS011;9548;56.920;14.804;2023-02-28T07:00:25;14.07;;;3.87;;
18838;SDS011;9548;56.920;14.804;2023-02-28T07:02:52;6.90;;;3.53;;
18838;SDS011;9548;56.920;14.804;2023-02-28T07:05:20;9.37;;;4.37;;
18838;SDS011;9548;56.920;14.804;2023-02-28T07:07:47;12.32;;;3.90;;
18838;SDS011;9548;56.920;14.804;2023-02-28T07:10:14;16.23;;;4.50;;
18838;SDS011;9548;56.920;14.804;2023-02-28T07:12:42;8.63;;;4.30;;
18838;SDS011;9548;56.920;14.804;2023-02-28T07:15:09;9.57;;;4.30;;
18838;SDS011;9548;56.920;14.804;2023-02-28T07:17:38;11.03;;;3.87;;
18838;SDS011;9548;56.920;14.804;2023-02-28T07:20:05;7.60;;;3.90;;
18838;SDS011;9548;56.920;14.804;2023-02-28T07:22:33;10.00;;;4.03;;
18838;SDS011;9548;56.920;14.804;2023-02-28T07:25:00;6.47;;;3.30;;
18838;SDS011;9548;56.920;14.804;2023-02-28T07:27:27;6.27;;;3.73;;
18838;SDS011;9548;56.920;14.804;2023-02-28T07:29:54;6.73;;;3.43;;
18838;SDS011;9548;56.920;14.804;2023-02-28T07:32:21;6.30;;;3.67;;
18838;SDS011;9548;56.920;14.804;2023-02-28T07:34:49;10.35;;;3.72;;
18838;SDS011;9548;56.920;14.804;2023-02-28T07:37:16;10.38;;;4.18;;
18838;SDS011;9548;56.920;14.804;2023-02-28T07:39:43;7.00;;;3.67;;
18838;SDS011;9548;56.920;14.804;2023-02-28T07:42:10;8.13;;;3.85;;
18838;SDS011;9548;56.920;14.804;2023-02-28T07:44:37;8.85;;;4.22;;
18838;SDS011;9548;56.920;14.804;2023-02-28T07:47:06;10.00;;;3.75;;
18838;SDS011;9548;56.920;14.804;2023-02-28T07:49:34;7.03;;;4.10;;
18838;SDS011;9548;56.920;14.804;2023-02-28T07:52:02;7.43;;;4.20;;
18838;SDS011;9548;56.920;14.804;2023-02-28T07:54:30;9.80;;;4.50;;
18838;SDS011;9548;56.920;14.804;2023-02-28T07:56:57;8.02;;;4.20;;
18838;SDS011;9548;56.920;14.804;2023-02-28T07:59:24;9.68;;;3.92;;
18838;SDS011;9548;56.920;14.804;2023-02-28T08:01:51;8.23;;;4.28;;
18838;SDS011;9548;56.920;14.804;2023-02-28T08:04:18;8.85;;;3.92;;
18838;SDS011;9548;56.920;14.804;2023-02-28T08:06:45;9.63;;;4.38;;
18838;SDS011;9548;56.920;14.804;2023-02-28T08:09:14;7.95;;;4.07;;
18838;SDS011;9548;56.920;14.804;2023-02-28T08:11:40;6.53;;;3.92;;
18838;SDS011;9548;56.920;14.804;2023-02-28T08:14:07;8.80;;;4.05;;
18838;SDS011;9548;56.920;14.804;2023-02-28T08:16:34;8.20;;;3.67;;
18838;SDS011;9548;56.920;14.804;2023-02-28T08:19:02;11.07;;;3.88;;
18838;SDS011;9548;56.920;14.804;2023-02-28T08:21:29;8.15;;;4.00;;
18838;SDS011;9548;56.920;14.804;2023-02-28T08:23:56;6.82;;;3.70;;
18838;SDS011;9548;56.920;14.804;2023-02-28T08:26:24;7.18;;;3.75;;
18838;SDS011;9548;56.920;14.804;2023-02-28T08:28:51;9.80;;;3.40;;
18838;SDS011;9548;56.920;14.804;2023-02-28T08:31:18;5.80;;;3.45;;
18838;SDS011;9548;56.920;14.804;2023-02-28T08:33:45;9.00;;;3.60;;
18838;SDS011;9548;56.920;14.804;2023-02-28T08:36:13;6.75;;;3.47;;
18838;SDS011;9548;56.920;14.804;2023-02-28T08:38:41;9.48;;;3.60;;
18838;SDS011;9548;56.920;14.804;2023-02-28T08:41:10;5.88;;;2.97;;
18838;SDS011;9548;56.920;14.804;2023-02-28T08:43:39;6.18;;;3.10;;
18838;SDS011;9548;56.920;14.804;2023-02-28T08:46:07;5.53;;;2.60;;
18838;SDS011;9548;56.920;14.804;2023-02-28T08:48:37;5.25;;;2.60;;
18838;SDS011;9548;56.920;14.804;2023-02-28T08:51:04;5.18;;;2.67;;
18838;SDS011;9548;56.920;14.804;2023-02-28T08:53:34;4.88;;;2.40;;
18838;SDS011;9548;56.920;14.804;2023-02-28T08:56:02;4.25;;;1.92;;
18838;SDS011;9548;56.920;14.804;2023-02-28T08:58:30;5.18;;;2.22;;
18838;SDS011;9548;56.920;14.804;2023-02-28T09:01:00;4.82;;;2.10;;
18838;SDS011;9548;56.920;14.804;2023-02-28T09:03:33;2.58;;;1.55;;
18838;SDS011;9548;56.920;14.804;2023-02-28T09:06:00;2.58;;;1.67;;
18838;SDS011;9548;56.920;14.804;2023-02-28T09:08:28;2.75;;;1.55;;
18838;SDS011;9548;56.920;14.804;2023-02-28T09:10:56;3.45;;;1.70;;
18838;SDS011;9548;56.920;14.804;2023-02-28T09:13:24;3.42;;;1.60;;
18838;SDS011;9548;56.920;14.804;2023-02-28T09:15:52;2.08;;;1.27;;
18838;SDS011;9548;56.920;14.804;2023-02-28T09:18:20;3.92;;;1.50;;
18838;SDS011;9548;56.920;14.804;2023-02-28T09:20:47;2.13;;;1.10;;
18838;SDS011;9548;56.920;14.804;2023-02-28T09:23:15;2.95;;;1.58;;
18838;SDS011;9548;56.920;14.804;2023-02-28T09:25:46;2.00;;;1.35;;
18838;SDS011;9548;56.920;14.804;2023-02-28T09:28:15;1.05;;;0.90;;
18838;SDS011;9548;56.920;14.804;2023-02-28T09:30:42;2.15;;;1.17;;
18838;SDS011;9548;56.920;14.804;2023-02-28T09:33:11;2.15;;;1.20;;
18838;SDS011;9548;56.920;14.804;2023-02-28T09:35:40;2.15;;;1.30;;
18838;SDS011;9548;56.920;14.804;2023-02-28T09:38:08;3.17;;;1.00;;
18838;SDS011;9548;56.920;14.804;2023-02-28T09:40:36;2.35;;;1.00;;
18838;SDS011;9548;56.920;14.804;2023-02-28T09:43:05;1.90;;;0.93;;
18838;SDS011;9548;56.920;14.804;2023-02-28T09:45:37;1.92;;;0.90;;
18838;SDS011;9548;56.920;14.804;2023-02-28T09:48:06;2.72;;;0.90;;
18838;SDS011;9548;56.920;14.804;2023-02-28T09:50:42;2.83;;;0.82;;
18838;SDS011;9548;56.920;14.804;2023-02-28T09:53:15;1.13;;;0.80;;
18838;SDS011;9548;56.920;14.804;2023-02-28T09:55:48;1.90;;;1.08;;
18838;SDS011;9548;56.920;14.804;2023-02-28T09:58:18;1.38;;;0.80;;
18838;SDS011;9548;56.920;14.804;2023-02-28T10:00:51;2.10;;;0.50;;
18838;SDS011;9548;56.920;14.804;2023-02-28T10:03:25;0.88;;;0.68;;
18838;SDS011;9548;56.920;14.804;2023-02-28T10:05:58;1.30;;;0.70;;
18838;SDS011;9548;56.920;14.804;2023-02-28T10:08:32;1.02;;;0.75;;
18838;SDS011;9548;56.920;14.804;2023-02-28T10:11:07;1.92;;;0.85;;
18838;SDS011;9548;56.920;14.804;2023-02-28T10:13:37;0.93;;;0.50;;
18838;SDS011;9548;56.920;14.804;2023-02-28T10:16:11;2.55;;;0.60;;
18838;SDS011;9548;56.920;14.804;2023-02-28T10:18:43;0.30;;;0.30;;
18838;SDS011;9548;56.920;14.804;2023-02-28T10:21:17;0.60;;;0.50;;
18838;SDS011;9548;56.920;14.804;2023-02-28T10:23:47;0.73;;;0.50;;
18838;SDS011;9548;56.920;14.804;2023-02-28T10:26:16;0.88;;;0.68;;
18838;SDS011;9548;56.920;14.804;2023-02-28T10:28:44;1.38;;;0.60;;
18838;SDS011;9548;56.920;14.804;2023-02-28T10:31:11;0.40;;;0.40;;
18838;SDS011;9548;56.920;14.804;2023-02-28T10:33:43;0.75;;;0.60;;
18838;SDS011;9548;56.920;14.804;2023-02-28T10:36:12;0.47;;;0.47;;
18838;SDS011;9548;56.920;14.804;2023-02-28T10:38:43;0.93;;;0.52;;
18838;SDS011;9548;56.920;14.804;2023-02-28T10:41:13;0.52;;;0.43;;
18838;SDS011;9548;56.920;14.804;2023-02-28T10:43:42;0.95;;;0.40;;
18838;SDS011;9548;56.920;14.804;2023-02-28T10:46:11;0.50;;;0.40;;
18838;SDS011;9548;56.920;14.804;2023-02-28T10:48:57;1.73;;;0.50;;
18838;SDS011;9548;56.920;14.804;2023-02-28T10:51:33;0.30;;;0.30;;
18838;SDS011;9548;56.920;14.804;2023-02-28T10:54:03;0.50;;;0.50;;
18838;SDS011;9548;56.920;14.804;2023-02-28T10:56:31;0.82;;;0.45;;
18838;SDS011;9548;56.920;14.804;2023-02-28T10:58:59;2.75;;;0.50;;
18838;SDS011;9548;56.920;14.804;2023-02-28T11:01:34;0.55;;;0.45;;
18838;SDS011;9548;56.920;14.804;2023-02-28T11:04:03;1.05;;;0.40;;
18838;SDS011;9548;56.920;14.804;2023-02-28T11:06:42;0.60;;;0.40;;
18838;SDS011;9548;56.920;14.804;2023-02-28T11:09:16;0.88;;;0.43;;
18838;SDS011;9548;56.920;14.804;2023-02-28T11:11:49;0.73;;;0.50;;
18838;SDS011;9548;56.920;14.804;2023-02-28T11:14:19;0.35;;;0.22;;
18838;SDS011;9548;56.920;14.804;2023-02-28T11:16:48;0.25;;;0.20;;
18838;SDS011;9548;56.920;14.804;2023-02-28T11:19:18;4.90;;;0.43;;
18838;SDS011;9548;56.920;14.804;2023-02-28T11:21:50;3.08;;;0.30;;
18838;SDS011;9548;56.920;14.804;2023-02-28T11:24:23;0.32;;;0.32;;
18838;SDS011;9548;56.920;14.804;2023-02-28T11:26:52;0.73;;;0.20;;
18838;SDS011;9548;56.920;14.804;2023-02-28T11:29:20;0.40;;;0.40;;
18838;SDS011;9548;56.920;14.804;2023-02-28T11:34:46;0.65;;;0.38;;
18838;SDS011;9548;56.920;14.804;2023-02-28T11:37:26;0.32;;;0.32;;
18838;SDS011;9548;56.920;14.804;2023-02-28T11:39:56;0.30;;;0.30;;
18838;SDS011;9548;56.920;14.804;2023-02-28T11:42:26;0.50;;;0.30;;
18838;SDS011;9548;56.920;14.804;2023-02-28T11:45:08;0.60;;;0.20;;
18838;SDS011;9548;56.920;14.804;2023-02-28T11:47:44;0.88;;;0.40;;
18838;SDS011;9548;56.920;14.804;2023-02-28T11:53:17;1.73;;;0.30;;
18838;SDS011;9548;56.920;14.804;2023-02-28T11:55:56;0.28;;;0.28;;
18838;SDS011;9548;56.920;14.804;2023-02-28T11:58:33;2.35;;;0.40;;
18838;SDS011;9548;56.920;14.804;2023-02-28T12:01:14;0.85;;;0.43;;
18838;SDS011;9548;56.920;14.804;2023-02-28T12:04:10;2.75;;;0.47;;
18838;SDS011;9548;56.920;14.804;2023-02-28T12:06:45;0.85;;;0.30;;
18838;SDS011;9548;56.920;14.804;2023-02-28T12:12:11;0.73;;;0.40;;
18838;SDS011;9548;56.920;14.804;2023-02-28T12:14:56;0.32;;;0.32;;
18838;SDS011;9548;56.920;14.804;2023-02-28T12:17:44;1.73;;;0.30;;
18838;SDS011;9548;56.920;14.804;2023-02-28T12:20:22;0.32;;;0.30;;
18838;SDS011;9548;56.920;14.804;2023-02-28T12:22:59;0.30;;;0.30;;
18838;SDS011;9548;56.920;14.804;2023-02-28T12:25:43;0.30;;;0.30;;
18838;SDS011;9548;56.920;14.804;2023-02-28T12:28:22;0.40;;;0.40;;
18838;SDS011;9548;56.920;14.804;2023-02-28T12:30:53;0.45;;;0.40;;
18838;SDS011;9548;56.920;14.804;2023-02-28T12:33:25;1.55;;;0.40;;
18838;SDS011;9548;56.920;14.804;2023-02-28T12:35:56;0.40;;;0.30;;
18838;SDS011;9548;56.920;14.804;2023-02-28T12:38:25;2.78;;;0.40;;
18838;SDS011;9548;56.920;14.804;2023-02-28T12:40:56;0.73;;;0.30;;
18838;SDS011;9548;56.920;14.804;2023-02-28T12:43:29;0.30;;;0.30;;
18838;SDS011;9548;56.920;14.804;2023-02-28T12:46:00;0.70;;;0.50;;
18838;SDS011;9548;56.920;14.804;2023-02-28T12:48:37;0.40;;;0.38;;
18838;SDS011;9548;56.920;14.804;2023-02-28T12:51:06;0.70;;;0.40;;
18838;SDS011;9548;56.920;14.804;2023-02-28T12:53:35;1.27;;;0.40;;
18838;SDS011;9548;56.920;14.804;2023-02-28T12:56:15;0.35;;;0.35;;
18838;SDS011;9548;56.920;14.804;2023-02-28T12:58:47;0.47;;;0.40;;
18838;SDS011;9548;56.920;14.804;2023-02-28T13:01:36;1.27;;;0.30;;
18838;SDS011;9548;56.920;14.804;2023-02-28T13:07:23;1.05;;;0.30;;
18838;SDS011;9548;56.920;14.804;2023-02-28T13:10:18;0.40;;;0.30;;
18838;SDS011;9548;56.920;14.804;2023-02-28T13:12:49;0.25;;;0.20;;
18838;SDS011;9548;56.920;14.804;2023-02-28T13:15:19;0.75;;;0.30;;
18838;SDS011;9548;56.920;14.804;2023-02-28T13:17:50;0.30;;;0.20;;
18838;SDS011;9548;56.920;14.804;2023-02-28T13:20:19;0.30;;;0.20;;
18838;SDS011;9548;56.920;14.804;2023-02-28T13:22:50;0.30;;;0.30;;
18838;SDS011;9548;56.920;14.804;2023-02-28T13:31:40;1.23;;;0.50;;
18838;SDS011;9548;56.920;14.804;2023-02-28T13:34:47;1.95;;;0.20;;
18838;SDS011;9548;56.920;14.804;2023-02-28T13:38:15;0.35;;;0.20;;
18838;SDS011;9548;56.920;14.804;2023-02-28T13:44:00;0.25;;;0.10;;
18838;SDS011;9548;56.920;14.804;2023-02-28T13:46:29;0.20;;;0.20;;
18838;SDS011;9548;56.920;14.804;2023-02-28T13:51:47;0.20;;;0.20;;
18838;SDS011;9548;56.920;14.804;2023-02-28T13:54:20;0.20;;;0.20;;
18838;SDS011;9548;56.920;14.804;2023-02-28T13:57:01;1.65;;;0.30;;
18838;SDS011;9548;56.920;14.804;2023-02-28T13:59:36;0.80;;;0.20;;
18838;SDS011;9548;56.920;14.804;2023-02-28T14:05:11;1.33;;;0.28;;
18838;SDS011;9548;56.920;14.804;2023-02-28T14:07:43;21.02;;;0.93;;
18838;SDS011;9548;56.920;14.804;2023-02-28T14:10:20;2.33;;;0.30;;
18838;SDS011;9548;56.920;14.804;2023-02-28T14:12:54;9.48;;;0.60;;
18838;SDS011;9548;56.920;14.804;2023-02-28T14:15:40;0.47;;;0.30;;
18838;SDS011;9548;56.920;14.804;2023-02-28T14:18:21;1.70;;;0.20;;
18838;SDS011;9548;56.920;14.804;2023-02-28T14:20:52;0.65;;;0.20;;
18838;SDS011;9548;56.920;14.804;2023-02-28T14:23:32;0.90;;;0.30;;
18838;SDS011;9548;56.920;14.804;2023-02-28T14:26:07;0.30;;;0.30;;
18838;SDS011;9548;56.920;14.804;2023-02-28T14:28:50;0.20;;;0.20;;
18838;SDS011;9548;56.920;14.804;2023-02-28T14:31:28;0.75;;;0.30;;
18838;SDS011;9548;56.920;14.804;2023-02-28T14:34:04;3.50;;;0.40;;
18838;SDS011;9548;56.920;14.804;2023-02-28T14:36:44;6.88;;;0.50;;
18838;SDS011;9548;56.920;14.804;2023-02-28T14:39:13;0.30;;;0.30;;
18838;SDS011;9548;56.920;14.804;2023-02-28T14:41:43;0.30;;;0.30;;
18838;SDS011;9548;56.920;14.804;2023-02-28T14:44:13;0.30;;;0.30;;
18838;SDS011;9548;56.920;14.804;2023-02-28T14:46:42;1.70;;;0.22;;
18838;SDS011;9548;56.920;14.804;2023-02-28T14:49:12;5.55;;;0.40;;
18838;SDS011;9548;56.920;14.804;2023-02-28T14:51:43;2.92;;;0.30;;
18838;SDS011;9548;56.920;14.804;2023-02-28T14:54:14;0.57;;;0.30;;
18838;SDS011;9548;56.920;14.804;2023-02-28T14:56:42;0.30;;;0.30;;
18838;SDS011;9548;56.920;14.804;2023-02-28T14:59:22;2.28;;;0.40;;
18838;SDS011;9548;56.920;14.804;2023-02-28T15:01:51;1.00;;;0.35;;
18838;SDS011;9548;56.920;14.804;2023-02-28T15:04:21;0.30;;;0.30;;
18838;SDS011;9548;56.920;14.804;2023-02-28T15:07:06;1.75;;;0.40;;
18838;SDS011;9548;56.920;14.804;2023-02-28T15:09:35;6.43;;;0.30;;
18838;SDS011;9548;56.920;14.804;2023-02-28T15:12:02;0.47;;;0.30;;
18838;SDS011;9548;56.920;14.804;2023-02-28T15:14:29;0.40;;;0.40;;
18838;SDS011;9548;56.920;14.804;2023-02-28T15:16:57;0.40;;;0.30;;
18838;SDS011;9548;56.920;14.804;2023-02-28T15:19:29;0.55;;;0.40;;
18838;SDS011;9548;56.920;14.804;2023-02-28T15:21:59;6.85;;;0.50;;
18838;SDS011;9548;56.920;14.804;2023-02-28T15:24:31;1.52;;;0.20;;
18838;SDS011;9548;56.920;14.804;2023-02-28T15:27:05;0.30;;;0.30;;
18838;SDS011;9548;56.920;14.804;2023-02-28T15:29:39;0.85;;;0.30;;
18838;SDS011;9548;56.920;14.804;2023-02-28T15:32:23;0.55;;;0.20;;
18838;SDS011;9548;56.920;14.804;2023-02-28T15:34:53;9.23;;;0.60;;
18838;SDS011;9548;56.920;14.804;2023-02-28T15:37:28;0.90;;;0.30;;
18838;SDS011;9548;56.920;14.804;2023-02-28T15:40:12;13.63;;;0.70;;
18838;SDS011;9548;56.920;14.804;2023-02-28T15:42:56;3.42;;;0.50;;
18838;SDS011;9548;56.920;14.804;2023-02-28T15:48:14;3.72;;;1.02;;
18838;SDS011;9548;56.920;14.804;2023-02-28T15:50:43;3.65;;;0.40;;